sensor_id;sensor_type;location;lat;lon;timestamp;P1;durP1;ratioP1;P2;durP2;ratioP2
69678;SDS011;56915;52.046;4.854;2022-11-20T00:01:20;18.40;;;7.20;;
69678;SDS011;56915;52.046;4.854;2022-11-20T00:03:48;18.88;;;7.20;;
69678;SDS011;56915;52.046;4.854;2022-11-20T00:06:18;19.07;;;6.80;;
69678;SDS011;56915;52.046;4.854;2022-11-20T00:08:46;17.95;;;6.53;;
69678;SDS011;56915;52.046;4.854;2022-11-20T00:11:14;21.05;;;7.13;;
69678;SDS011;56915;52.046;4.854;2022-11-20T00:13:46;18.10;;;6.88;;
69678;SDS011;56915;52.046;4.854;2022-11-20T00:16:16;20.00;;;7.45;;
69678;SDS011;56915;52.046;4.854;2022-11-20T00:18:44;20.87;;;7.70;;
69678;SDS011;56915;52.046;4.854;2022-11-20T00:21:12;23.00;;;7.82;;
69678;SDS011;56915;52.046;4.854;2022-11-20T00:23:41;19.90;;;7.55;;
69678;SDS011;56915;52.046;4.854;2022-11-20T00:26:15;21.15;;;8.10;;
69678;SDS011;56915;52.046;4.854;2022-11-20T00:28:43;21.08;;;7.43;;
69678;SDS011;56915;52.046;4.854;2022-11-20T00:31:15;18.50;;;6.87;;
69678;SDS011;56915;52.046;4.854;2022-11-20T00:33:42;19.58;;;7.85;;
69678;SDS011;56915;52.046;4.854;2022-11-20T00:36:17;19.90;;;7.50;;
69678;SDS011;56915;52.046;4.854;2022-11-20T00:38:45;23.00;;;8.25;;
69678;SDS011;56915;52.046;4.854;2022-11-20T00:41:13;21.60;;;7.43;;
69678;SDS011;56915;52.046;4.854;2022-11-20T00:43:55;18.93;;;7.17;;
69678;SDS011;56915;52.046;4.854;2022-11-20T00:46:23;21.98;;;7.65;;
69678;SDS011;56915;52.046;4.854;2022-11-20T00:48:54;17.90;;;7.05;;
69678;SDS011;56915;52.046;4.854;2022-11-20T00:51:22;18.48;;;6.88;;
69678;SDS011;56915;52.046;4.854;2022-11-20T00:53:50;17.73;;;6.47;;
69678;SDS011;56915;52.046;4.854;2022-11-20T00:56:18;16.73;;;6.63;;
69678;SDS011;56915;52.046;4.854;2022-11-20T00:58:46;18.88;;;7.18;;
69678;SDS011;56915;52.046;4.854;2022-11-20T01:01:18;20.15;;;7.30;;
69678;SDS011;56915;52.046;4.854;2022-11-20T01:03:48;18.95;;;7.60;;
69678;SDS011;56915;52.046;4.854;2022-11-20T01:06:16;22.95;;;8.10;;
69678;SDS011;56915;52.046;4.854;2022-11-20T01:08:45;24.83;;;8.17;;
69678;SDS011;56915;52.046;4.854;2022-11-20T01:11:15;19.67;;;7.53;;
69678;SDS011;56915;52.046;4.854;2022-11-20T01:13:44;21.10;;;7.05;;
69678;SDS011;56915;52.046;4.854;2022-11-20T01:16:22;22.92;;;7.90;;
69678;SDS011;56915;52.046;4.854;2022-11-20T01:18:50;23.05;;;8.35;;
69678;SDS011;56915;52.046;4.854;2022-11-20T01:21:19;20.93;;;8.27;;
69678;SDS011;56915;52.046;4.854;2022-11-20T01:23:47;24.05;;;8.07;;
69678;SDS011;56915;52.046;4.854;2022-11-20T01:26:16;21.90;;;8.35;;
69678;SDS011;56915;52.046;4.854;2022-11-20T01:28:45;23.27;;;8.07;;
69678;SDS011;56915;52.046;4.854;2022-11-20T01:33:42;22.77;;;7.87;;
69678;SDS011;56915;52.046;4.854;2022-11-20T01:36:09;20.50;;;7.90;;
69678;SDS011;56915;52.046;4.854;2022-11-20T01:38:37;20.10;;;7.68;;
69678;SDS011;56915;52.046;4.854;2022-11-20T01:41:04;19.98;;;7.35;;
69678;SDS011;56915;52.046;4.854;2022-11-20T01:43:32;21.70;;;8.10;;
69678;SDS011;56915;52.046;4.854;2022-11-20T01:48:34;20.55;;;7.82;;
69678;SDS011;56915;52.046;4.854;2022-11-20T01:51:15;20.60;;;7.65;;
69678;SDS011;56915;52.046;4.854;2022-11-20T01:53:55;21.65;;;7.78;;
69678;SDS011;56915;52.046;4.854;2022-11-20T01:56:25;19.77;;;7.50;;
69678;SDS011;56915;52.046;4.854;2022-11-20T01:58:56;22.03;;;7.70;;
69678;SDS011;56915;52.046;4.854;2022-11-20T02:01:24;21.95;;;7.82;;
69678;SDS011;56915;52.046;4.854;2022-11-20T02:03:51;21.45;;;7.72;;
69678;SDS011;56915;52.046;4.854;2022-11-20T02:06:22;19.92;;;7.13;;
69678;SDS011;56915;52.046;4.854;2022-11-20T02:08:52;20.73;;;7.78;;
69678;SDS011;56915;52.046;4.854;2022-11-20T02:11:19;18.20;;;6.90;;
69678;SDS011;56915;52.046;4.854;2022-11-20T02:13:46;20.33;;;7.88;;
69678;SDS011;56915;52.046;4.854;2022-11-20T02:16:15;22.52;;;7.78;;
69678;SDS011;56915;52.046;4.854;2022-11-20T02:18:46;19.45;;;6.78;;
69678;SDS011;56915;52.046;4.854;2022-11-20T02:23:59;19.83;;;7.17;;
69678;SDS011;56915;52.046;4.854;2022-11-20T02:26:28;22.10;;;7.35;;
69678;SDS011;56915;52.046;4.854;2022-11-20T02:29:01;19.15;;;6.88;;
69678;SDS011;56915;52.046;4.854;2022-11-20T02:31:29;19.05;;;6.72;;
69678;SDS011;56915;52.046;4.854;2022-11-20T02:34:00;23.42;;;7.40;;
69678;SDS011;56915;52.046;4.854;2022-11-20T02:36:27;22.43;;;7.60;;
69678;SDS011;56915;52.046;4.854;2022-11-20T02:38:54;22.27;;;7.90;;
69678;SDS011;56915;52.046;4.854;2022-11-20T02:41:21;21.13;;;7.28;;
69678;SDS011;56915;52.046;4.854;2022-11-20T02:43:56;19.80;;;7.40;;
69678;SDS011;56915;52.046;4.854;2022-11-20T02:46:22;22.63;;;7.95;;
69678;SDS011;56915;52.046;4.854;2022-11-20T02:48:49;22.07;;;8.10;;
69678;SDS011;56915;52.046;4.854;2022-11-20T02:51:16;23.60;;;8.25;;
69678;SDS011;56915;52.046;4.854;2022-11-20T02:53:43;23.60;;;7.38;;
69678;SDS011;56915;52.046;4.854;2022-11-20T02:56:10;21.05;;;7.30;;
69678;SDS011;56915;52.046;4.854;2022-11-20T02:58:37;22.40;;;7.63;;
69678;SDS011;56915;52.046;4.854;2022-11-20T03:01:03;19.97;;;7.30;;
69678;SDS011;56915;52.046;4.854;2022-11-20T03:03:30;21.98;;;6.97;;
69678;SDS011;56915;52.046;4.854;2022-11-20T03:05:58;20.58;;;7.70;;
69678;SDS011;56915;52.046;4.854;2022-11-20T03:08:25;23.88;;;7.80;;
69678;SDS011;56915;52.046;4.854;2022-11-20T03:10:52;21.95;;;7.70;;
69678;SDS011;56915;52.046;4.854;2022-11-20T03:13:19;21.90;;;7.60;;
69678;SDS011;56915;52.046;4.854;2022-11-20T03:15:46;20.35;;;6.97;;
69678;SDS011;56915;52.046;4.854;2022-11-20T03:18:12;20.67;;;7.82;;
69678;SDS011;56915;52.046;4.854;2022-11-20T03:20:39;24.63;;;8.98;;
69678;SDS011;56915;52.046;4.854;2022-11-20T03:23:06;33.35;;;11.55;;
69678;SDS011;56915;52.046;4.854;2022-11-20T03:25:33;27.73;;;10.07;;
69678;SDS011;56915;52.046;4.854;2022-11-20T03:28:00;27.10;;;9.85;;
69678;SDS011;56915;52.046;4.854;2022-11-20T03:30:26;26.88;;;9.52;;
69678;SDS011;56915;52.046;4.854;2022-11-20T03:32:56;23.73;;;8.43;;
69678;SDS011;56915;52.046;4.854;2022-11-20T03:35:22;21.75;;;8.50;;
69678;SDS011;56915;52.046;4.854;2022-11-20T03:37:49;25.17;;;8.63;;
69678;SDS011;56915;52.046;4.854;2022-11-20T03:40:16;25.10;;;8.07;;
69678;SDS011;56915;52.046;4.854;2022-11-20T03:42:43;21.48;;;8.07;;
69678;SDS011;56915;52.046;4.854;2022-11-20T03:45:16;22.95;;;7.50;;
69678;SDS011;56915;52.046;4.854;2022-11-20T03:47:44;21.83;;;7.50;;
69678;SDS011;56915;52.046;4.854;2022-11-20T03:50:11;21.37;;;7.60;;
69678;SDS011;56915;52.046;4.854;2022-11-20T03:52:39;19.63;;;6.95;;
69678;SDS011;56915;52.046;4.854;2022-11-20T03:55:09;16.42;;;6.68;;
69678;SDS011;56915;52.046;4.854;2022-11-20T03:57:36;17.15;;;6.47;;
69678;SDS011;56915;52.046;4.854;2022-11-20T04:00:03;17.77;;;6.68;;
69678;SDS011;56915;52.046;4.854;2022-11-20T04:02:31;19.87;;;6.70;;
69678;SDS011;56915;52.046;4.854;2022-11-20T04:04:58;18.60;;;6.63;;
69678;SDS011;56915;52.046;4.854;2022-11-20T04:07:25;19.40;;;7.15;;
69678;SDS011;56915;52.046;4.854;2022-11-20T04:09:51;23.83;;;7.88;;
69678;SDS011;56915;52.046;4.854;2022-11-20T04:12:18;20.67;;;7.50;;
69678;SDS011;56915;52.046;4.854;2022-11-20T04:14:45;19.80;;;7.37;;
69678;SDS011;56915;52.046;4.854;2022-11-20T04:17:12;20.40;;;7.38;;
69678;SDS011;56915;52.046;4.854;2022-11-20T04:19:38;23.50;;;7.85;;
69678;SDS011;56915;52.046;4.854;2022-11-20T04:22:05;22.35;;;7.93;;
69678;SDS011;56915;52.046;4.854;2022-11-20T04:24:32;20.60;;;7.93;;
69678;SDS011;56915;52.046;4.854;2022-11-20T04:26:59;20.63;;;7.97;;
69678;SDS011;56915;52.046;4.854;2022-11-20T04:29:25;22.75;;;7.28;;
69678;SDS011;56915;52.046;4.854;2022-11-20T04:31:52;22.05;;;7.63;;
69678;SDS011;56915;52.046;4.854;2022-11-20T04:34:19;22.45;;;7.55;;
69678;SDS011;56915;52.046;4.854;2022-11-20T04:36:45;21.23;;;7.78;;
69678;SDS011;56915;52.046;4.854;2022-11-20T04:39:13;20.60;;;7.83;;
69678;SDS011;56915;52.046;4.854;2022-11-20T04:41:41;20.33;;;7.28;;
69678;SDS011;56915;52.046;4.854;2022-11-20T04:44:08;21.73;;;7.80;;
69678;SDS011;56915;52.046;4.854;2022-11-20T04:46:36;21.35;;;7.85;;
69678;SDS011;56915;52.046;4.854;2022-11-20T04:49:08;24.58;;;7.70;;
69678;SDS011;56915;52.046;4.854;2022-11-20T04:51:35;25.73;;;7.50;;
69678;SDS011;56915;52.046;4.854;2022-11-20T04:54:01;20.77;;;7.22;;
69678;SDS011;56915;52.046;4.854;2022-11-20T04:56:28;20.52;;;7.65;;
69678;SDS011;56915;52.046;4.854;2022-11-20T04:58:55;21.65;;;7.75;;
69678;SDS011;56915;52.046;4.854;2022-11-20T05:01:26;19.80;;;7.38;;
69678;SDS011;56915;52.046;4.854;2022-11-20T05:03:53;22.40;;;8.03;;
69678;SDS011;56915;52.046;4.854;2022-11-20T05:06:20;20.90;;;7.50;;
69678;SDS011;56915;52.046;4.854;2022-11-20T05:08:48;19.63;;;7.88;;
69678;SDS011;56915;52.046;4.854;2022-11-20T05:11:16;20.08;;;7.63;;
69678;SDS011;56915;52.046;4.854;2022-11-20T05:13:45;19.92;;;7.22;;
69678;SDS011;56915;52.046;4.854;2022-11-20T05:16:14;20.17;;;7.20;;
69678;SDS011;56915;52.046;4.854;2022-11-20T05:18:42;21.85;;;7.45;;
69678;SDS011;56915;52.046;4.854;2022-11-20T05:21:11;21.92;;;7.57;;
69678;SDS011;56915;52.046;4.854;2022-11-20T05:23:39;21.63;;;8.00;;
69678;SDS011;56915;52.046;4.854;2022-11-20T05:26:07;21.67;;;7.50;;
69678;SDS011;56915;52.046;4.854;2022-11-20T05:28:37;21.37;;;8.07;;
69678;SDS011;56915;52.046;4.854;2022-11-20T05:31:11;26.52;;;7.68;;
69678;SDS011;56915;52.046;4.854;2022-11-20T05:33:51;21.27;;;8.18;;
69678;SDS011;56915;52.046;4.854;2022-11-20T05:36:18;19.50;;;7.38;;
69678;SDS011;56915;52.046;4.854;2022-11-20T05:38:45;21.77;;;8.10;;
69678;SDS011;56915;52.046;4.854;2022-11-20T05:41:17;23.20;;;8.10;;
69678;SDS011;56915;52.046;4.854;2022-11-20T05:43:46;21.27;;;7.53;;
69678;SDS011;56915;52.046;4.854;2022-11-20T05:46:15;24.83;;;8.70;;
69678;SDS011;56915;52.046;4.854;2022-11-20T05:48:50;22.33;;;7.72;;
69678;SDS011;56915;52.046;4.854;2022-11-20T05:51:17;24.88;;;8.35;;
69678;SDS011;56915;52.046;4.854;2022-11-20T05:53:45;25.47;;;8.53;;
69678;SDS011;56915;52.046;4.854;2022-11-20T05:56:18;23.17;;;8.00;;
69678;SDS011;56915;52.046;4.854;2022-11-20T05:58:46;22.60;;;8.50;;
69678;SDS011;56915;52.046;4.854;2022-11-20T06:01:15;20.38;;;7.38;;
69678;SDS011;56915;52.046;4.854;2022-11-20T06:03:47;25.40;;;8.13;;
69678;SDS011;56915;52.046;4.854;2022-11-20T06:06:17;22.77;;;7.90;;
69678;SDS011;56915;52.046;4.854;2022-11-20T06:08:44;22.77;;;7.70;;
69678;SDS011;56915;52.046;4.854;2022-11-20T06:11:12;21.35;;;8.13;;
69678;SDS011;56915;52.046;4.854;2022-11-20T06:13:40;23.17;;;8.35;;
69678;SDS011;56915;52.046;4.854;2022-11-20T06:16:08;21.52;;;7.65;;
69678;SDS011;56915;52.046;4.854;2022-11-20T06:18:36;25.13;;;8.30;;
69678;SDS011;56915;52.046;4.854;2022-11-20T06:21:10;25.25;;;8.73;;
69678;SDS011;56915;52.046;4.854;2022-11-20T06:23:41;23.92;;;8.20;;
69678;SDS011;56915;52.046;4.854;2022-11-20T06:26:12;22.83;;;8.23;;
69678;SDS011;56915;52.046;4.854;2022-11-20T06:28:41;25.00;;;8.75;;
69678;SDS011;56915;52.046;4.854;2022-11-20T06:31:09;24.47;;;8.40;;
69678;SDS011;56915;52.046;4.854;2022-11-20T06:33:37;26.20;;;8.40;;
69678;SDS011;56915;52.046;4.854;2022-11-20T06:36:04;22.98;;;8.43;;
69678;SDS011;56915;52.046;4.854;2022-11-20T06:38:36;22.13;;;7.82;;
69678;SDS011;56915;52.046;4.854;2022-11-20T06:41:04;22.50;;;8.07;;
69678;SDS011;56915;52.046;4.854;2022-11-20T06:43:32;23.13;;;7.97;;
69678;SDS011;56915;52.046;4.854;2022-11-20T06:45:59;25.50;;;8.73;;
69678;SDS011;56915;52.046;4.854;2022-11-20T06:48:26;23.20;;;8.35;;
69678;SDS011;56915;52.046;4.854;2022-11-20T06:50:53;20.95;;;7.93;;
69678;SDS011;56915;52.046;4.854;2022-11-20T06:53:21;22.25;;;8.07;;
69678;SDS011;56915;52.046;4.854;2022-11-20T06:55:49;22.80;;;7.90;;
69678;SDS011;56915;52.046;4.854;2022-11-20T06:58:16;23.52;;;8.15;;
69678;SDS011;56915;52.046;4.854;2022-11-20T07:00:43;24.33;;;8.50;;
69678;SDS011;56915;52.046;4.854;2022-11-20T07:03:11;20.50;;;8.13;;
69678;SDS011;56915;52.046;4.854;2022-11-20T07:05:38;20.88;;;7.75;;
69678;SDS011;56915;52.046;4.854;2022-11-20T07:08:06;22.67;;;8.10;;
69678;SDS011;56915;52.046;4.854;2022-11-20T07:10:33;19.83;;;8.20;;
69678;SDS011;56915;52.046;4.854;2022-11-20T07:13:00;20.77;;;7.88;;
69678;SDS011;56915;52.046;4.854;2022-11-20T07:15:27;21.48;;;7.75;;
69678;SDS011;56915;52.046;4.854;2022-11-20T07:17:54;22.20;;;7.65;;
69678;SDS011;56915;52.046;4.854;2022-11-20T07:20:21;21.73;;;7.83;;
69678;SDS011;56915;52.046;4.854;2022-11-20T07:22:52;23.05;;;8.05;;
69678;SDS011;56915;52.046;4.854;2022-11-20T07:25:23;23.60;;;8.32;;
69678;SDS011;56915;52.046;4.854;2022-11-20T07:27:51;21.52;;;8.55;;
69678;SDS011;56915;52.046;4.854;2022-11-20T07:30:18;22.52;;;8.35;;
69678;SDS011;56915;52.046;4.854;2022-11-20T07:32:51;21.97;;;8.30;;
69678;SDS011;56915;52.046;4.854;2022-11-20T07:35:19;20.83;;;8.27;;
69678;SDS011;56915;52.046;4.854;2022-11-20T07:37:47;23.67;;;7.97;;
69678;SDS011;56915;52.046;4.854;2022-11-20T07:40:15;19.17;;;7.75;;
69678;SDS011;56915;52.046;4.854;2022-11-20T07:42:49;21.75;;;8.50;;
69678;SDS011;56915;52.046;4.854;2022-11-20T07:45:21;23.27;;;7.73;;
69678;SDS011;56915;52.046;4.854;2022-11-20T07:47:50;21.92;;;8.57;;
69678;SDS011;56915;52.046;4.854;2022-11-20T07:50:17;21.63;;;8.60;;
69678;SDS011;56915;52.046;4.854;2022-11-20T07:52:45;22.30;;;8.43;;
69678;SDS011;56915;52.046;4.854;2022-11-20T07:55:12;21.45;;;8.20;;
69678;SDS011;56915;52.046;4.854;2022-11-20T07:57:39;22.93;;;8.77;;
69678;SDS011;56915;52.046;4.854;2022-11-20T08:00:08;23.75;;;9.10;;
69678;SDS011;56915;52.046;4.854;2022-11-20T08:02:40;23.20;;;8.57;;
69678;SDS011;56915;52.046;4.854;2022-11-20T08:05:08;23.90;;;9.00;;
69678;SDS011;56915;52.046;4.854;2022-11-20T08:07:37;29.58;;;9.50;;
69678;SDS011;56915;52.046;4.854;2022-11-20T08:10:06;26.70;;;9.37;;
69678;SDS011;56915;52.046;4.854;2022-11-20T08:12:35;25.67;;;9.27;;
69678;SDS011;56915;52.046;4.854;2022-11-20T08:15:32;23.85;;;9.50;;
69678;SDS011;56915;52.046;4.854;2022-11-20T08:18:03;22.33;;;8.98;;
69678;SDS011;56915;52.046;4.854;2022-11-20T08:20:51;23.70;;;9.73;;
69678;SDS011;56915;52.046;4.854;2022-11-20T08:23:18;25.17;;;9.60;;
69678;SDS011;56915;52.046;4.854;2022-11-20T08:25:48;25.23;;;9.77;;
69678;SDS011;56915;52.046;4.854;2022-11-20T08:28:20;23.85;;;9.38;;
69678;SDS011;56915;52.046;4.854;2022-11-20T08:30:48;26.08;;;9.88;;
69678;SDS011;56915;52.046;4.854;2022-11-20T08:33:16;22.27;;;9.88;;
69678;SDS011;56915;52.046;4.854;2022-11-20T08:35:44;25.50;;;9.60;;
69678;SDS011;56915;52.046;4.854;2022-11-20T08:38:11;26.15;;;9.80;;
69678;SDS011;56915;52.046;4.854;2022-11-20T08:40:38;25.15;;;9.93;;
69678;SDS011;56915;52.046;4.854;2022-11-20T08:43:04;25.48;;;10.68;;
69678;SDS011;56915;52.046;4.854;2022-11-20T08:45:31;27.70;;;10.27;;
69678;SDS011;56915;52.046;4.854;2022-11-20T08:48:03;26.43;;;10.93;;
69678;SDS011;56915;52.046;4.854;2022-11-20T08:50:30;26.33;;;10.63;;
69678;SDS011;56915;52.046;4.854;2022-11-20T08:53:05;26.02;;;10.57;;
69678;SDS011;56915;52.046;4.854;2022-11-20T08:55:32;25.65;;;10.52;;
69678;SDS011;56915;52.046;4.854;2022-11-20T08:58:04;27.67;;;10.70;;
69678;SDS011;56915;52.046;4.854;2022-11-20T09:00:32;26.97;;;11.10;;
69678;SDS011;56915;52.046;4.854;2022-11-20T09:03:00;25.08;;;10.55;;
69678;SDS011;56915;52.046;4.854;2022-11-20T09:05:28;25.00;;;11.27;;
69678;SDS011;56915;52.046;4.854;2022-11-20T09:07:56;27.65;;;11.70;;
69678;SDS011;56915;52.046;4.854;2022-11-20T09:10:28;25.88;;;10.73;;
69678;SDS011;56915;52.046;4.854;2022-11-20T09:12:55;26.87;;;10.83;;
69678;SDS011;56915;52.046;4.854;2022-11-20T09:15:23;25.55;;;11.35;;
69678;SDS011;56915;52.046;4.854;2022-11-20T09:17:55;28.80;;;11.30;;
69678;SDS011;56915;52.046;4.854;2022-11-20T09:20:29;26.90;;;11.20;;
69678;SDS011;56915;52.046;4.854;2022-11-20T09:22:57;27.92;;;11.50;;
69678;SDS011;56915;52.046;4.854;2022-11-20T09:25:23;25.00;;;10.73;;
69678;SDS011;56915;52.046;4.854;2022-11-20T09:27:57;25.25;;;11.32;;
69678;SDS011;56915;52.046;4.854;2022-11-20T09:30:25;28.05;;;11.82;;
69678;SDS011;56915;52.046;4.854;2022-11-20T09:32:53;27.15;;;11.20;;
69678;SDS011;56915;52.046;4.854;2022-11-20T09:35:20;29.10;;;12.07;;
69678;SDS011;56915;52.046;4.854;2022-11-20T09:37:47;27.33;;;11.97;;
69678;SDS011;56915;52.046;4.854;2022-11-20T09:40:19;29.85;;;11.55;;
69678;SDS011;56915;52.046;4.854;2022-11-20T09:42:54;27.30;;;11.75;;
69678;SDS011;56915;52.046;4.854;2022-11-20T09:53:51;28.50;;;11.95;;
69678;SDS011;56915;52.046;4.854;2022-11-20T09:56:33;31.95;;;12.55;;
69678;SDS011;56915;52.046;4.854;2022-11-20T09:59:04;30.67;;;12.63;;
69678;SDS011;56915;52.046;4.854;2022-11-20T10:01:34;28.10;;;12.30;;
69678;SDS011;56915;52.046;4.854;2022-11-20T10:06:33;31.55;;;12.70;;
69678;SDS011;56915;52.046;4.854;2022-11-20T10:14:47;28.65;;;12.88;;
69678;SDS011;56915;52.046;4.854;2022-11-20T10:31:44;29.20;;;12.13;;
69678;SDS011;56915;52.046;4.854;2022-11-20T10:37:09;31.25;;;13.07;;
69678;SDS011;56915;52.046;4.854;2022-11-20T10:42:46;28.05;;;12.85;;
69678;SDS011;56915;52.046;4.854;2022-11-20T10:45:40;29.53;;;13.20;;
69678;SDS011;56915;52.046;4.854;2022-11-20T10:48:23;29.70;;;13.38;;
69678;SDS011;56915;52.046;4.854;2022-11-20T10:51:26;31.10;;;13.52;;
69678;SDS011;56915;52.046;4.854;2022-11-20T10:54:17;29.35;;;12.90;;
69678;SDS011;56915;52.046;4.854;2022-11-20T10:57:24;32.67;;;13.35;;
69678;SDS011;56915;52.046;4.854;2022-11-20T11:00:13;30.63;;;13.43;;
69678;SDS011;56915;52.046;4.854;2022-11-20T11:02:47;31.52;;;13.35;;
69678;SDS011;56915;52.046;4.854;2022-11-20T11:07:56;30.90;;;12.35;;
69678;SDS011;56915;52.046;4.854;2022-11-20T11:10:26;31.90;;;13.23;;
69678;SDS011;56915;52.046;4.854;2022-11-20T11:13:21;29.40;;;13.30;;
69678;SDS011;56915;52.046;4.854;2022-11-20T11:15:50;34.63;;;13.60;;
69678;SDS011;56915;52.046;4.854;2022-11-20T11:20:53;31.25;;;13.95;;
69678;SDS011;56915;52.046;4.854;2022-11-20T11:23:31;32.38;;;13.75;;
69678;SDS011;56915;52.046;4.854;2022-11-20T11:26:07;33.87;;;13.53;;
69678;SDS011;56915;52.046;4.854;2022-11-20T11:28:59;31.60;;;14.30;;
69678;SDS011;56915;52.046;4.854;2022-11-20T11:31:29;31.52;;;13.68;;
69678;SDS011;56915;52.046;4.854;2022-11-20T11:36:38;31.85;;;13.43;;
69678;SDS011;56915;52.046;4.854;2022-11-20T11:39:08;35.23;;;14.20;;
69678;SDS011;56915;52.046;4.854;2022-11-20T11:41:40;37.30;;;14.65;;
69678;SDS011;56915;52.046;4.854;2022-11-20T11:44:15;34.92;;;14.13;;
69678;SDS011;56915;52.046;4.854;2022-11-20T11:49:48;38.70;;;13.85;;
69678;SDS011;56915;52.046;4.854;2022-11-20T11:52:25;31.70;;;12.67;;
69678;SDS011;56915;52.046;4.854;2022-11-20T11:55:01;35.88;;;14.40;;
69678;SDS011;56915;52.046;4.854;2022-11-20T12:00:17;33.70;;;13.95;;
69678;SDS011;56915;52.046;4.854;2022-11-20T12:05:47;35.60;;;13.23;;
69678;SDS011;56915;52.046;4.854;2022-11-20T12:08:19;36.30;;;13.75;;
69678;SDS011;56915;52.046;4.854;2022-11-20T12:13:35;33.70;;;13.75;;
69678;SDS011;56915;52.046;4.854;2022-11-20T12:16:09;32.53;;;13.15;;
69678;SDS011;56915;52.046;4.854;2022-11-20T12:18:40;44.73;;;13.53;;
69678;SDS011;56915;52.046;4.854;2022-11-20T12:21:16;31.17;;;12.68;;
69678;SDS011;56915;52.046;4.854;2022-11-20T12:34:47;32.30;;;13.10;;
69678;SDS011;56915;52.046;4.854;2022-11-20T12:37:30;35.90;;;12.98;;
69678;SDS011;56915;52.046;4.854;2022-11-20T12:40:02;33.70;;;13.18;;
69678;SDS011;56915;52.046;4.854;2022-11-20T12:43:01;32.72;;;13.55;;
69678;SDS011;56915;52.046;4.854;2022-11-20T12:46:17;34.63;;;13.23;;
69678;SDS011;56915;52.046;4.854;2022-11-20T12:57:50;32.90;;;12.70;;
69678;SDS011;56915;52.046;4.854;2022-11-20T13:00:27;36.07;;;13.70;;
69678;SDS011;56915;52.046;4.854;2022-11-20T13:05:47;41.10;;;13.90;;
69678;SDS011;56915;52.046;4.854;2022-11-20T13:08:35;39.42;;;14.02;;
69678;SDS011;56915;52.046;4.854;2022-11-20T13:11:07;42.17;;;14.50;;
69678;SDS011;56915;52.046;4.854;2022-11-20T13:16:38;43.78;;;14.00;;
69678;SDS011;56915;52.046;4.854;2022-11-20T13:19:14;40.97;;;14.43;;
69678;SDS011;56915;52.046;4.854;2022-11-20T13:21:47;39.63;;;13.23;;
69678;SDS011;56915;52.046;4.854;2022-11-20T13:24:29;41.38;;;14.40;;
69678;SDS011;56915;52.046;4.854;2022-11-20T13:29:41;37.83;;;14.18;;
69678;SDS011;56915;52.046;4.854;2022-11-20T13:34:50;45.50;;;15.23;;
69678;SDS011;56915;52.046;4.854;2022-11-20T13:37:32;44.67;;;15.00;;
69678;SDS011;56915;52.046;4.854;2022-11-20T13:40:21;42.10;;;14.60;;
69678;SDS011;56915;52.046;4.854;2022-11-20T13:46:07;43.50;;;15.30;;
69678;SDS011;56915;52.046;4.854;2022-11-20T13:57:31;40.78;;;14.25;;
69678;SDS011;56915;52.046;4.854;2022-11-20T14:00:17;43.17;;;14.07;;
69678;SDS011;56915;52.046;4.854;2022-11-20T14:02:50;42.47;;;14.70;;
69678;SDS011;56915;52.046;4.854;2022-11-20T14:05:50;42.20;;;14.25;;
69678;SDS011;56915;52.046;4.854;2022-11-20T14:08:24;42.37;;;14.27;;
69678;SDS011;56915;52.046;4.854;2022-11-20T14:16:43;34.83;;;12.63;;
69678;SDS011;56915;52.046;4.854;2022-11-20T14:21:51;48.90;;;16.13;;
69678;SDS011;56915;52.046;4.854;2022-11-20T14:24:20;46.38;;;15.50;;
69678;SDS011;56915;52.046;4.854;2022-11-20T14:26:49;47.47;;;17.20;;
69678;SDS011;56915;52.046;4.854;2022-11-20T14:29:26;55.22;;;17.73;;
69678;SDS011;56915;52.046;4.854;2022-11-20T14:31:55;52.03;;;16.75;;
69678;SDS011;56915;52.046;4.854;2022-11-20T14:34:25;50.23;;;17.80;;
69678;SDS011;56915;52.046;4.854;2022-11-20T14:36:58;50.30;;;17.25;;
69678;SDS011;56915;52.046;4.854;2022-11-20T14:39:36;49.47;;;18.00;;
69678;SDS011;56915;52.046;4.854;2022-11-20T14:42:16;45.00;;;16.10;;
69678;SDS011;56915;52.046;4.854;2022-11-20T14:44:48;48.72;;;17.70;;
69678;SDS011;56915;52.046;4.854;2022-11-20T14:47:18;49.83;;;17.63;;
69678;SDS011;56915;52.046;4.854;2022-11-20T14:49:48;54.63;;;18.42;;
69678;SDS011;56915;52.046;4.854;2022-11-20T14:57:28;57.55;;;19.95;;
69678;SDS011;56915;52.046;4.854;2022-11-20T15:02:41;57.25;;;19.30;;
69678;SDS011;56915;52.046;4.854;2022-11-20T15:05:10;54.50;;;19.67;;
69678;SDS011;56915;52.046;4.854;2022-11-20T15:07:39;49.17;;;17.80;;
69678;SDS011;56915;52.046;4.854;2022-11-20T15:10:27;52.80;;;17.92;;
69678;SDS011;56915;52.046;4.854;2022-11-20T15:12:55;51.23;;;18.53;;
69678;SDS011;56915;52.046;4.854;2022-11-20T15:15:38;47.63;;;17.38;;
69678;SDS011;56915;52.046;4.854;2022-11-20T15:18:13;55.15;;;18.45;;
69678;SDS011;56915;52.046;4.854;2022-11-20T15:20:42;52.60;;;17.15;;
69678;SDS011;56915;52.046;4.854;2022-11-20T15:23:13;45.80;;;16.20;;
69678;SDS011;56915;52.046;4.854;2022-11-20T15:25:41;53.23;;;18.10;;
69678;SDS011;56915;52.046;4.854;2022-11-20T15:28:13;52.10;;;18.17;;
69678;SDS011;56915;52.046;4.854;2022-11-20T15:30:53;54.03;;;18.45;;
69678;SDS011;56915;52.046;4.854;2022-11-20T15:33:22;49.90;;;18.33;;
69678;SDS011;56915;52.046;4.854;2022-11-20T15:35:48;58.17;;;17.92;;
69678;SDS011;56915;52.046;4.854;2022-11-20T15:38:15;51.37;;;17.93;;
69678;SDS011;56915;52.046;4.854;2022-11-20T15:40:42;58.20;;;18.73;;
69678;SDS011;56915;52.046;4.854;2022-11-20T15:43:09;54.58;;;18.20;;
69678;SDS011;56915;52.046;4.854;2022-11-20T15:45:45;48.90;;;18.45;;
69678;SDS011;56915;52.046;4.854;2022-11-20T15:48:22;51.08;;;18.50;;
69678;SDS011;56915;52.046;4.854;2022-11-20T15:51:14;46.90;;;18.07;;
69678;SDS011;56915;52.046;4.854;2022-11-20T15:53:56;48.97;;;17.50;;
69678;SDS011;56915;52.046;4.854;2022-11-20T15:56:25;50.88;;;17.20;;
69678;SDS011;56915;52.046;4.854;2022-11-20T15:58:54;47.72;;;16.83;;
69678;SDS011;56915;52.046;4.854;2022-11-20T16:01:21;49.65;;;16.88;;
69678;SDS011;56915;52.046;4.854;2022-11-20T16:03:48;49.60;;;16.53;;
69678;SDS011;56915;52.046;4.854;2022-11-20T16:06:17;50.88;;;16.50;;
69678;SDS011;56915;52.046;4.854;2022-11-20T16:08:44;49.83;;;16.20;;
69678;SDS011;56915;52.046;4.854;2022-11-20T16:11:15;45.75;;;16.42;;
69678;SDS011;56915;52.046;4.854;2022-11-20T16:13:43;45.92;;;15.65;;
69678;SDS011;56915;52.046;4.854;2022-11-20T16:16:29;51.53;;;16.57;;
69678;SDS011;56915;52.046;4.854;2022-11-20T16:18:58;39.97;;;14.55;;
69678;SDS011;56915;52.046;4.854;2022-11-20T16:21:26;46.47;;;16.58;;
69678;SDS011;56915;52.046;4.854;2022-11-20T16:23:57;49.85;;;16.15;;
69678;SDS011;56915;52.046;4.854;2022-11-20T16:26:24;46.95;;;16.05;;
69678;SDS011;56915;52.046;4.854;2022-11-20T16:28:51;44.70;;;15.07;;
69678;SDS011;56915;52.046;4.854;2022-11-20T16:31:18;40.42;;;14.82;;
69678;SDS011;56915;52.046;4.854;2022-11-20T16:33:49;38.78;;;14.60;;
69678;SDS011;56915;52.046;4.854;2022-11-20T16:36:18;40.70;;;13.93;;
69678;SDS011;56915;52.046;4.854;2022-11-20T16:38:46;34.53;;;13.15;;
69678;SDS011;56915;52.046;4.854;2022-11-20T16:41:13;41.00;;;14.70;;
69678;SDS011;56915;52.046;4.854;2022-11-20T16:43:43;40.50;;;14.82;;
69678;SDS011;56915;52.046;4.854;2022-11-20T16:46:21;38.47;;;14.70;;
69678;SDS011;56915;52.046;4.854;2022-11-20T16:48:53;41.03;;;13.98;;
69678;SDS011;56915;52.046;4.854;2022-11-20T16:51:21;37.97;;;14.35;;
69678;SDS011;56915;52.046;4.854;2022-11-20T16:53:49;38.00;;;13.93;;